createdAt,value
2023-04-07T00:00:52.060Z,15.52
2023-04-07T00:03:20.203Z,15.02
2023-04-07T00:05:48.335Z,15.00
2023-04-07T00:08:17.848Z,14.00
2023-04-07T00:10:45.670Z,14.00
2023-04-07T00:13:13.605Z,13.05
2023-04-07T00:15:41.805Z,12.77
2023-04-07T00:18:09.729Z,12.95
2023-04-07T00:20:38.584Z,10.30
2023-04-07T00:23:06.642Z,10.00
2023-04-07T00:25:35.972Z,10.27
2023-04-07T00:28:04.312Z,9.55
2023-04-07T00:30:32.382Z,8.77
2023-04-07T00:33:00.411Z,9.90
2023-04-07T00:35:28.788Z,9.23
2023-04-07T00:37:57.210Z,9.38
2023-04-07T00:40:25.480Z,8.95
2023-04-07T00:42:54.899Z,8.43
2023-04-07T00:45:23.275Z,9.38
2023-04-07T00:47:51.291Z,9.52
2023-04-07T00:50:20.150Z,9.90
2023-04-07T00:52:48.044Z,9.68
2023-04-07T00:55:16.052Z,8.95
2023-04-07T00:57:46.644Z,9.32
2023-04-07T01:00:16.832Z,8.95
2023-04-07T01:02:49.944Z,9.43
2023-04-07T01:05:21.664Z,9.40
2023-04-07T01:07:59.775Z,10.90
2023-04-07T01:10:32.254Z,10.98
2023-04-07T01:13:07.421Z,11.05
2023-04-07T01:15:38.152Z,11.95
2023-04-07T01:18:13.028Z,11.77
2023-04-07T01:20:41.606Z,12.82
2023-04-07T01:23:09.614Z,12.52
2023-04-07T01:25:56.233Z,12.48
2023-04-07T01:28:40.886Z,12.73
2023-04-07T01:31:11.051Z,12.77
2023-04-07T01:33:40.032Z,13.60
2023-04-07T01:36:08.873Z,14.73
2023-04-07T01:38:37.235Z,14.32
2023-04-07T01:41:05.792Z,13.77
2023-04-07T01:43:33.980Z,12.73
2023-04-07T01:46:03.203Z,13.75
2023-04-07T01:48:32.694Z,13.05
2023-04-07T01:51:01.871Z,13.20
2023-04-07T01:53:30.161Z,12.98
2023-04-07T01:55:58.348Z,12.45
2023-04-07T01:58:27.321Z,12.35
2023-04-07T02:00:55.448Z,13.18
2023-04-07T02:03:27.917Z,12.35
2023-04-07T02:05:59.651Z,12.60
2023-04-07T02:11:01.317Z,13.27
2023-04-07T02:13:34.474Z,13.30
2023-04-07T02:16:02.956Z,13.23
2023-04-07T02:18:32.468Z,12.63
2023-04-07T02:21:02.537Z,14.18
2023-04-07T02:23:30.360Z,14.13
2023-04-07T02:25:59.042Z,14.30
2023-04-07T02:28:27.192Z,14.98
2023-04-07T02:30:55.057Z,13.75
2023-04-07T02:33:23.028Z,15.20
2023-04-07T02:35:51.920Z,15.07
2023-04-07T02:38:21.028Z,17.05
2023-04-07T02:40:49.079Z,15.25
2023-04-07T02:43:19.096Z,16.20
2023-04-07T02:45:47.431Z,15.80
2023-04-07T02:48:15.440Z,17.52
2023-04-07T02:50:44.386Z,16.30
2023-04-07T02:53:12.342Z,16.55
2023-04-07T02:55:41.826Z,16.77
2023-04-07T02:58:09.713Z,17.58
2023-04-07T03:00:41.959Z,17.30
2023-04-07T03:03:22.720Z,18.15
2023-04-07T03:06:05.343Z,18.08
2023-04-07T03:08:35.179Z,17.15
2023-04-07T03:11:04.381Z,18.20
2023-04-07T03:13:32.568Z,18.52
2023-04-07T03:16:00.616Z,17.90
2023-04-07T03:18:33.973Z,17.83
2023-04-07T03:21:03.240Z,18.27
2023-04-07T03:23:32.203Z,17.70
2023-04-07T03:26:01.153Z,16.65
2023-04-07T03:28:35.000Z,16.45
2023-04-07T03:31:04.050Z,15.98
2023-04-07T03:33:32.068Z,16.60
2023-04-07T03:36:00.168Z,16.25
2023-04-07T03:38:28.126Z,15.43
2023-04-07T03:41:00.690Z,15.30
2023-04-07T03:43:29.012Z,15.35
2023-04-07T03:45:58.343Z,14.63
2023-04-07T03:48:28.733Z,15.43
2023-04-07T03:51:06.329Z,14.13
2023-04-07T03:53:35.844Z,13.90
2023-04-07T03:56:14.711Z,14.80
2023-04-07T03:58:46.858Z,14.70
2023-04-07T04:01:22.480Z,15.38
2023-04-07T04:03:52.186Z,14.23
2023-04-07T04:06:28.492Z,14.80
2023-04-07T04:09:04.037Z,13.65
2023-04-07T04:11:35.170Z,13.38
2023-04-07T04:14:06.576Z,14.05
2023-04-07T04:16:38.542Z,14.80
2023-04-07T04:19:15.119Z,13.45
2023-04-07T04:21:43.661Z,13.27
2023-04-07T04:24:11.779Z,13.27
2023-04-07T04:26:40.600Z,13.05
2023-04-07T04:29:12.780Z,12.50
2023-04-07T04:31:44.995Z,12.38
2023-04-07T04:34:13.223Z,12.00
2023-04-07T04:36:42.934Z,11.48
2023-04-07T04:39:11.097Z,11.70
2023-04-07T04:41:39.953Z,11.23
2023-04-07T04:44:09.280Z,10.65
2023-04-07T04:46:39.318Z,10.70
2023-04-07T04:49:09.160Z,10.63
2023-04-07T04:51:37.563Z,12.35
2023-04-07T04:54:13.501Z,11.57
2023-04-07T04:56:42.849Z,11.00
2023-04-07T04:59:11.549Z,12.32
2023-04-07T05:01:47.058Z,12.98
2023-04-07T05:04:19.328Z,11.63
2023-04-07T05:06:56.209Z,12.70
2023-04-07T05:09:28.447Z,13.20
2023-04-07T05:11:58.038Z,12.40
2023-04-07T05:14:27.100Z,12.10
2023-04-07T05:17:01.787Z,11.75
2023-04-07T05:19:32.516Z,11.23
2023-04-07T05:22:06.329Z,12.20
2023-04-07T05:24:42.196Z,11.60
2023-04-07T05:27:10.436Z,12.15
2023-04-07T05:29:39.371Z,11.95
2023-04-07T05:32:10.745Z,13.75
2023-04-07T05:34:40.227Z,13.38
2023-04-07T05:37:08.269Z,14.27
2023-04-07T05:39:36.435Z,12.90
2023-04-07T05:42:06.661Z,12.70
2023-04-07T05:44:36.762Z,12.30
2023-04-07T05:47:08.944Z,13.65
2023-04-07T05:49:45.826Z,13.65
2023-04-07T05:52:14.558Z,12.60
2023-04-07T05:54:45.264Z,12.98
2023-04-07T05:57:15.198Z,12.02
2023-04-07T05:59:45.878Z,13.35
2023-04-07T06:02:14.428Z,11.40
2023-04-07T06:04:43.888Z,11.65
2023-04-07T06:07:16.170Z,10.80
2023-04-07T06:09:44.823Z,10.90
2023-04-07T06:12:13.543Z,10.57
2023-04-07T06:14:41.414Z,9.60
2023-04-07T06:17:09.546Z,10.15
2023-04-07T06:19:37.617Z,9.23
2023-04-07T06:22:06.864Z,9.45
2023-04-07T06:24:34.842Z,8.23
2023-04-07T06:27:04.902Z,8.63
2023-04-07T06:29:34.338Z,9.73
2023-04-07T06:32:05.835Z,9.30
2023-04-07T06:34:33.753Z,9.40
2023-04-07T06:37:01.871Z,9.55
2023-04-07T06:39:31.813Z,9.50
2023-04-07T06:41:59.909Z,9.38
2023-04-07T06:44:27.732Z,9.02
2023-04-07T06:46:55.753Z,8.15
2023-04-07T06:49:23.800Z,8.85
2023-04-07T06:51:51.826Z,9.77
2023-04-07T06:54:19.653Z,8.50
2023-04-07T06:56:49.097Z,8.40
2023-04-07T06:59:17.082Z,8.48
2023-04-07T07:01:45.638Z,8.07
2023-04-07T07:04:13.755Z,7.20
2023-04-07T07:06:41.703Z,7.32
2023-04-07T07:09:09.807Z,7.38
2023-04-07T07:11:37.752Z,7.57
2023-04-07T07:14:06.941Z,7.32
2023-04-07T07:16:34.933Z,8.48
2023-04-07T07:19:02.983Z,7.43
2023-04-07T07:21:31.512Z,7.80
2023-04-07T07:23:59.436Z,7.78
2023-04-07T07:26:27.786Z,8.25
2023-04-07T07:28:55.670Z,8.63
2023-04-07T07:31:24.862Z,7.97
2023-04-07T07:33:52.839Z,7.57
2023-04-07T07:36:20.905Z,8.52
2023-04-07T07:38:52.207Z,8.10
2023-04-07T07:41:20.012Z,6.93
2023-04-07T07:43:48.312Z,8.30
2023-04-07T07:46:16.662Z,7.88
2023-04-07T07:48:46.608Z,8.18
2023-04-07T07:51:14.760Z,8.75
2023-04-07T07:53:42.507Z,8.40
2023-04-07T07:56:10.479Z,8.50
2023-04-07T07:58:38.596Z,8.02
2023-04-07T08:01:06.728Z,10.05
2023-04-07T08:03:34.822Z,9.60
2023-04-07T08:06:04.381Z,10.02
2023-04-07T08:08:32.462Z,10.00
2023-04-07T08:11:00.535Z,9.88
2023-04-07T08:13:28.297Z,9.13
2023-04-07T08:15:56.514Z,8.75
2023-04-07T08:18:25.467Z,7.70
2023-04-07T08:20:53.748Z,7.85
2023-04-07T08:23:23.350Z,7.93
2023-04-07T08:25:51.255Z,7.35
2023-04-07T08:28:19.070Z,7.28
2023-04-07T08:30:47.047Z,7.60
2023-04-07T08:33:15.722Z,8.63
2023-04-07T08:35:43.515Z,8.75
2023-04-07T08:38:11.764Z,8.32
2023-04-07T08:40:40.884Z,7.13
2023-04-07T08:43:10.562Z,7.95
2023-04-07T08:45:40.614Z,8.15
2023-04-07T08:48:14.289Z,8.60
2023-04-07T08:50:45.494Z,7.32
2023-04-07T08:53:14.918Z,7.05
2023-04-07T08:55:44.226Z,6.50
2023-04-07T08:58:13.420Z,5.63
2023-04-07T09:00:42.858Z,6.72
2023-04-07T09:03:11.824Z,5.78
2023-04-07T09:05:40.509Z,6.18
2023-04-07T09:08:08.309Z,6.97
2023-04-07T09:10:37.564Z,6.25
2023-04-07T09:13:06.754Z,6.18
2023-04-07T09:15:36.209Z,6.28
2023-04-07T09:18:05.433Z,5.45
2023-04-07T09:20:58.029Z,5.65
2023-04-07T09:23:30.871Z,5.40
2023-04-07T09:26:01.733Z,5.72
2023-04-07T09:28:44.449Z,5.18
2023-04-07T09:31:12.621Z,5.53
2023-04-07T09:33:40.507Z,5.32
2023-04-07T09:36:08.753Z,5.65
2023-04-07T09:38:37.867Z,4.65
2023-04-07T09:41:10.012Z,4.95
2023-04-07T09:43:40.606Z,5.28
2023-04-07T09:46:11.485Z,4.63
2023-04-07T09:48:40.039Z,4.65
2023-04-07T09:51:09.717Z,4.75
2023-04-07T09:53:45.503Z,4.80
2023-04-07T09:56:13.955Z,4.55
2023-04-07T09:58:41.962Z,5.43
2023-04-07T10:01:11.643Z,4.80
2023-04-07T10:03:39.794Z,3.58
2023-04-07T10:06:08.298Z,4.03
2023-04-07T10:08:38.187Z,4.35
2023-04-07T10:11:06.779Z,4.70
2023-04-07T10:13:38.478Z,3.88
2023-04-07T10:16:08.009Z,4.22
2023-04-07T10:18:38.168Z,3.40
2023-04-07T10:21:09.492Z,3.92
2023-04-07T10:23:50.541Z,4.22
2023-04-07T10:26:20.573Z,4.40
2023-04-07T10:28:52.327Z,4.57
2023-04-07T10:31:20.632Z,4.60
2023-04-07T10:33:52.100Z,4.22
2023-04-07T10:36:21.020Z,4.65
2023-04-07T10:39:20.608Z,4.57
2023-04-07T10:41:48.529Z,4.03
2023-04-07T10:44:46.743Z,4.18
2023-04-07T10:47:15.163Z,4.28
2023-04-07T10:50:20.466Z,4.10
2023-04-07T10:52:49.811Z,4.38
2023-04-07T10:55:37.740Z,3.88
2023-04-07T10:58:24.753Z,4.00
2023-04-07T11:01:23.364Z,4.07
2023-04-07T11:03:57.370Z,5.03
2023-04-07T11:06:27.801Z,4.20
2023-04-07T11:08:55.782Z,4.95
2023-04-07T11:11:39.012Z,4.10
2023-04-07T11:14:07.190Z,4.50
2023-04-07T11:16:40.044Z,4.55
2023-04-07T11:19:08.092Z,3.72
2023-04-07T11:21:37.865Z,3.40
2023-04-07T11:24:06.206Z,3.75
2023-04-07T11:26:39.360Z,3.42
2023-04-07T11:29:08.034Z,3.67
2023-04-07T11:31:36.412Z,3.45
2023-04-07T11:34:05.705Z,3.53
2023-04-07T11:36:34.935Z,4.82
2023-04-07T11:39:04.899Z,3.97
2023-04-07T11:41:33.985Z,4.07
2023-04-07T11:44:06.138Z,3.70
2023-04-07T11:46:34.011Z,3.55
2023-04-07T11:49:13.364Z,4.35
2023-04-07T11:51:42.241Z,3.58
2023-04-07T11:54:11.480Z,4.05
2023-04-07T11:56:44.623Z,3.83
2023-04-07T11:59:22.788Z,3.33
2023-04-07T12:01:52.352Z,3.50
2023-04-07T12:04:21.587Z,4.40
2023-04-07T12:06:50.537Z,3.70
2023-04-07T12:09:35.990Z,4.20
2023-04-07T12:12:05.790Z,4.07
2023-04-07T12:14:33.746Z,4.82
2023-04-07T12:17:03.250Z,4.00
2023-04-07T12:19:34.972Z,3.67
2023-04-07T12:22:02.978Z,3.72
2023-04-07T12:24:32.679Z,3.75
2023-04-07T12:27:00.612Z,3.55
2023-04-07T12:29:28.699Z,3.83
2023-04-07T12:31:57.563Z,3.80
2023-04-07T12:34:25.688Z,4.07
2023-04-07T12:36:53.543Z,4.68
2023-04-07T12:39:22.931Z,3.80
2023-04-07T12:41:53.355Z,4.93
2023-04-07T12:44:21.429Z,5.40
2023-04-07T12:46:49.350Z,4.85
2023-04-07T12:49:17.521Z,5.00
2023-04-07T12:51:46.119Z,5.35
2023-04-07T12:54:15.041Z,6.05
2023-04-07T12:56:43.085Z,4.75
2023-04-07T12:59:13.066Z,4.13
2023-04-07T13:01:41.305Z,3.88
2023-04-07T13:04:10.105Z,3.95
2023-04-07T13:06:38.190Z,3.60
2023-04-07T13:09:06.065Z,3.53
2023-04-07T13:11:33.889Z,3.90
2023-04-07T13:14:01.928Z,4.80
2023-04-07T13:16:31.708Z,3.65
2023-04-07T13:18:59.564Z,3.90
2023-04-07T13:21:45.412Z,4.05
2023-04-07T13:24:13.807Z,3.70
2023-04-07T13:26:41.796Z,4.05
2023-04-07T13:29:09.554Z,3.67
2023-04-07T13:31:38.727Z,4.35
2023-04-07T13:34:06.803Z,4.43
2023-04-07T13:36:34.768Z,4.82
2023-04-07T13:39:02.868Z,3.95
2023-04-07T13:41:31.837Z,4.20
2023-04-07T13:43:59.663Z,4.18
2023-04-07T13:46:29.175Z,4.55
2023-04-07T13:48:58.784Z,3.75
2023-04-07T13:51:28.164Z,4.32
2023-04-07T13:53:56.127Z,4.03
2023-04-07T13:56:24.021Z,4.10
2023-04-07T13:58:52.486Z,4.03
2023-04-07T14:01:20.440Z,3.75
2023-04-07T14:03:49.896Z,3.75
2023-04-07T14:06:22.951Z,3.95
2023-04-07T14:08:51.199Z,3.60
2023-04-07T14:11:19.344Z,3.72
2023-04-07T14:13:47.963Z,4.72
2023-04-07T14:16:15.987Z,3.70
2023-04-07T14:18:44.041Z,3.67
2023-04-07T14:21:11.957Z,3.58
2023-04-07T14:23:42.267Z,3.35
2023-04-07T14:26:11.733Z,3.30
2023-04-07T14:28:39.631Z,4.22
2023-04-07T14:31:07.468Z,4.22
2023-04-07T14:33:35.583Z,8.95
2023-04-07T14:36:03.444Z,7.30
2023-04-07T14:38:31.998Z,5.65
2023-04-07T14:43:35.642Z,6.30
2023-04-07T14:46:03.588Z,4.70
2023-04-07T14:48:32.694Z,4.85
2023-04-07T14:51:09.332Z,5.18
2023-04-07T14:53:37.574Z,4.35
2023-04-07T14:56:07.376Z,5.13
2023-04-07T14:58:37.525Z,4.97
2023-04-07T15:01:06.558Z,4.32
2023-04-07T15:03:34.928Z,5.43
2023-04-07T15:06:07.829Z,4.78
2023-04-07T15:08:38.635Z,5.32
2023-04-07T15:11:09.749Z,4.90
2023-04-07T15:13:37.829Z,4.85
2023-04-07T15:16:09.992Z,5.50
2023-04-07T15:18:40.400Z,5.72
2023-04-07T15:21:08.562Z,5.00
2023-04-07T15:23:38.782Z,6.28
2023-04-07T15:26:07.268Z,4.82
2023-04-07T15:28:36.671Z,5.25
2023-04-07T15:31:08.372Z,5.18
2023-04-07T15:33:36.809Z,5.13
2023-04-07T15:36:05.082Z,5.70
2023-04-07T15:38:33.624Z,5.47
2023-04-07T15:41:01.471Z,5.68
2023-04-07T15:43:30.471Z,6.05
2023-04-07T15:46:00.128Z,5.25
2023-04-07T15:48:28.057Z,5.22
2023-04-07T15:50:55.838Z,4.45
2023-04-07T15:53:26.808Z,4.40
2023-04-07T15:55:56.184Z,4.70
2023-04-07T15:58:24.047Z,4.88
2023-04-07T16:00:52.027Z,5.25
2023-04-07T16:03:21.520Z,4.88
2023-04-07T16:05:51.118Z,5.03
2023-04-07T16:08:19.105Z,5.20
2023-04-07T16:10:46.996Z,5.07
2023-04-07T16:13:15.469Z,5.20
2023-04-07T16:15:43.653Z,5.38
2023-04-07T16:18:12.563Z,5.78
2023-04-07T16:20:42.171Z,5.25
2023-04-07T16:23:10.061Z,5.57
2023-04-07T16:25:38.039Z,5.82
2023-04-07T16:28:05.898Z,5.45
2023-04-07T16:30:33.895Z,4.97
2023-04-07T16:33:01.903Z,6.03
2023-04-07T16:35:31.251Z,6.10
2023-04-07T16:38:04.073Z,6.30
2023-04-07T16:40:32.638Z,6.78
2023-04-07T16:43:00.598Z,6.53
2023-04-07T16:45:28.755Z,7.10
2023-04-07T16:47:56.920Z,7.57
2023-04-07T16:50:24.937Z,7.97
2023-04-07T16:52:52.997Z,7.70
2023-04-07T16:55:22.520Z,8.32
2023-04-07T16:57:50.725Z,7.72
2023-04-07T17:00:19.401Z,8.10
2023-04-07T17:02:47.570Z,8.20
2023-04-07T17:05:17.571Z,8.00
2023-04-07T17:07:45.561Z,7.20
2023-04-07T17:10:14.650Z,7.35
2023-04-07T17:12:44.168Z,6.63
2023-04-07T17:15:12.322Z,7.65
2023-04-07T17:17:40.528Z,7.28
2023-04-07T17:20:09.503Z,7.55
2023-04-07T17:22:37.582Z,7.40
2023-04-07T17:25:06.278Z,7.75
2023-04-07T17:27:34.140Z,8.05
2023-04-07T17:30:03.437Z,7.57
2023-04-07T17:32:31.691Z,7.95
2023-04-07T17:34:59.470Z,8.80
2023-04-07T17:37:27.716Z,9.90
2023-04-07T17:39:55.527Z,9.73
2023-04-07T17:42:23.478Z,9.10
2023-04-07T17:44:53.652Z,11.38
2023-04-07T17:47:22.972Z,11.70
2023-04-07T17:49:50.808Z,10.85
2023-04-07T17:52:18.834Z,11.70
2023-04-07T17:54:47.130Z,12.07
2023-04-07T17:57:15.979Z,12.98
2023-04-07T17:59:43.884Z,12.73
2023-04-07T18:02:12.080Z,12.82
2023-04-07T18:04:41.492Z,12.18
2023-04-07T18:07:09.974Z,13.13
2023-04-07T18:09:37.904Z,13.05
2023-04-07T18:12:06.321Z,14.13
2023-04-07T18:14:34.417Z,13.70
2023-04-07T18:17:02.449Z,15.45
2023-04-07T18:19:31.065Z,15.27
2023-04-07T18:22:00.939Z,15.77
2023-04-07T18:24:29.096Z,16.17
2023-04-07T18:26:57.112Z,15.85
2023-04-07T18:29:25.016Z,16.88
2023-04-07T18:31:53.055Z,16.65
2023-04-07T18:34:21.198Z,16.95
2023-04-07T18:36:49.277Z,17.00
2023-04-07T18:39:19.100Z,17.38
2023-04-07T18:41:48.382Z,18.42
2023-04-07T18:44:16.372Z,18.38
2023-04-07T18:46:46.127Z,17.02
2023-04-07T18:49:13.993Z,17.38
2023-04-07T18:51:42.263Z,17.58
2023-04-07T18:54:10.210Z,18.27
2023-04-07T18:56:39.817Z,18.05
2023-04-07T18:59:08.344Z,17.27
2023-04-07T19:01:36.721Z,19.02
2023-04-07T19:04:04.666Z,18.42
2023-04-07T19:06:33.007Z,17.90
2023-04-07T19:09:03.743Z,18.77
2023-04-07T19:11:31.805Z,16.60
2023-04-07T19:14:01.275Z,18.10
2023-04-07T19:16:29.157Z,18.83
2023-04-07T19:18:57.287Z,16.55
2023-04-07T19:21:25.553Z,19.58
2023-04-07T19:23:56.099Z,19.13
2023-04-07T19:26:24.423Z,19.90
2023-04-07T19:28:52.435Z,22.00
2023-04-07T19:31:22.340Z,22.77
2023-04-07T19:33:50.507Z,21.50
2023-04-07T19:36:18.995Z,21.55
2023-04-07T19:38:46.827Z,20.92
2023-04-07T19:41:14.760Z,20.95
2023-04-07T19:43:42.733Z,20.35
2023-04-07T19:46:10.701Z,20.70
2023-04-07T19:48:40.117Z,20.23
2023-04-07T19:51:08.169Z,22.27
2023-04-07T19:53:36.098Z,22.70
2023-04-07T19:56:04.760Z,24.92
2023-04-07T19:58:34.474Z,23.67
2023-04-07T20:01:04.412Z,24.17
2023-04-07T20:03:32.659Z,25.25
2023-04-07T20:06:02.028Z,24.60
2023-04-07T20:08:29.920Z,25.17
2023-04-07T20:10:57.784Z,25.23
2023-04-07T20:13:25.699Z,25.35
2023-04-07T20:15:53.912Z,25.35
2023-04-07T20:18:21.950Z,24.73
2023-04-07T20:20:50.182Z,25.65
2023-04-07T20:23:22.247Z,25.05
2023-04-07T20:25:50.088Z,25.05
2023-04-07T20:28:18.007Z,25.77
2023-04-07T20:30:45.983Z,23.73
2023-04-07T20:33:14.147Z,23.45
2023-04-07T20:35:42.007Z,24.33
2023-04-07T20:38:09.847Z,22.73
2023-04-07T20:40:39.649Z,24.77
2023-04-07T20:43:07.558Z,26.02
2023-04-07T20:45:35.431Z,28.50
2023-04-07T20:48:03.613Z,27.83
2023-04-07T20:50:31.837Z,29.48
2023-04-07T20:53:00.057Z,27.02
2023-04-07T20:55:28.780Z,28.17
2023-04-07T20:57:58.199Z,28.52
2023-04-07T21:00:26.088Z,26.98
2023-04-07T21:02:54.100Z,27.80
2023-04-07T21:05:22.458Z,27.02
2023-04-07T21:07:50.264Z,27.27
2023-04-07T21:10:18.089Z,26.48
2023-04-07T21:12:46.155Z,26.83
2023-04-07T21:15:15.716Z,26.67
2023-04-07T21:17:43.834Z,27.23
2023-04-07T21:20:12.651Z,27.55
2023-04-07T21:22:40.581Z,28.05
2023-04-07T21:25:09.291Z,28.42
2023-04-07T21:27:38.288Z,28.95
2023-04-07T21:30:06.957Z,29.90
2023-04-07T21:32:36.713Z,28.77
2023-04-07T21:35:04.937Z,27.83
2023-04-07T21:37:32.916Z,27.83
2023-04-07T21:40:00.732Z,28.75
2023-04-07T21:42:28.593Z,28.48
2023-04-07T21:44:57.141Z,28.75
2023-04-07T21:47:25.557Z,27.17
2023-04-07T21:49:54.847Z,26.45
2023-04-07T21:52:22.629Z,27.25
2023-04-07T21:54:50.798Z,27.05
2023-04-07T21:57:18.794Z,25.33
2023-04-07T21:59:46.657Z,24.50
2023-04-07T22:02:14.763Z,23.98
2023-04-07T22:04:42.724Z,22.83
2023-04-07T22:07:12.063Z,22.15
2023-04-07T22:09:40.035Z,22.98
2023-04-07T22:12:08.143Z,22.15
2023-04-07T22:14:36.059Z,22.50
2023-04-07T22:17:04.112Z,21.65
2023-04-07T22:19:31.896Z,22.67
2023-04-07T22:21:59.803Z,23.98
2023-04-07T22:24:29.355Z,21.25
2023-04-07T22:26:58.354Z,21.08
2023-04-07T22:29:26.244Z,20.02
2023-04-07T22:31:54.352Z,20.95
2023-04-07T22:34:22.208Z,21.38
2023-04-07T22:36:50.044Z,21.40
2023-04-07T22:39:17.814Z,20.52
2023-04-07T22:41:47.232Z,20.90
2023-04-07T22:44:15.286Z,19.67
2023-04-07T22:46:43.299Z,18.42
2023-04-07T22:49:11.858Z,20.58
2023-04-07T22:51:39.731Z,19.90
2023-04-07T22:54:07.528Z,19.58
2023-04-07T22:56:35.700Z,19.13
2023-04-07T22:59:06.358Z,20.05
2023-04-07T23:01:34.410Z,19.58
2023-04-07T23:04:02.249Z,20.50
2023-04-07T23:06:30.236Z,20.70
2023-04-07T23:08:58.370Z,20.15
2023-04-07T23:11:26.345Z,19.70
2023-04-07T23:13:54.316Z,19.13
2023-04-07T23:16:24.422Z,18.30
2023-04-07T23:18:52.504Z,18.58
2023-04-07T23:21:20.818Z,17.55
2023-04-07T23:23:48.898Z,16.92
2023-04-07T23:26:16.659Z,16.75
2023-04-07T23:28:44.467Z,16.15
2023-04-07T23:31:12.544Z,15.23
2023-04-07T23:33:41.738Z,15.07
2023-04-07T23:36:09.595Z,15.43
2023-04-07T23:38:39.678Z,14.75
2023-04-07T23:41:07.804Z,15.85
2023-04-07T23:43:35.758Z,16.23
2023-04-07T23:46:03.993Z,15.82
2023-04-07T23:48:31.971Z,17.48
2023-04-07T23:51:01.231Z,17.13
2023-04-07T23:53:29.043Z,16.25
2023-04-07T23:55:56.944Z,16.92
2023-04-07T23:58:24.675Z,16.42
